Time;durP1;ratioP1;P1;durP2;ratioP2;P2;SDS_P1;SDS_P2;PMS_P1;PMS_P2;Temp;Humidity;BMP_temperature;BMP_pressure;BME280_temperature;BME280_humidity;BME280_pressure;Samples;Min_cycle;Max_cycle;Signal;HPM_P1;HPM_P2
2022/10/09 00:01:56;;;;;;;1.27;0.77;;;;;;;15.67;100.00;100486.00;5093614;28;20203;-74
2022/10/09 00:04:23;;;;;;;1.80;0.90;;;;;;;15.38;100.00;100447.59;5093608;28;20228;-75
2022/10/09 00:06:50;;;;;;;2.05;0.82;;;;;;;15.52;100.00;100468.56;5094688;28;20198;-74
2022/10/09 00:09:18;;;;;;;2.03;0.90;;;;;;;15.54;100.00;100465.97;5072669;28;20224;-74
2022/10/09 00:11:45;;;;;;;1.40;0.85;;;;;;;15.58;100.00;100471.19;5114191;28;20247;-74
2022/10/09 00:14:11;;;;;;;2.38;0.90;;;;;;;15.57;100.00;100465.97;5108026;28;20255;-74
2022/10/09 00:16:38;;;;;;;0.80;0.60;;;;;;;15.52;100.00;100455.50;5102423;28;20205;-75
2022/10/09 00:19:06;;;;;;;1.25;1.13;;;;;;;15.66;100.00;100460.75;5096867;27;20206;-74
2022/10/09 00:21:34;;;;;;;1.60;0.82;;;;;;;15.39;100.00;100433.69;5113772;28;20202;-74
2022/10/09 00:24:03;;;;;;;0.70;0.70;;;;;;;15.51;100.00;100458.13;5111102;28;21047;-74
2022/10/09 00:26:29;;;;;;;2.40;1.10;;;;;;;15.03;100.00;100458.84;5106241;28;20194;-74
2022/10/09 00:28:56;;;;;;;2.78;1.08;;;;;;;15.13;100.00;100471.06;5112030;28;20221;-73
2022/10/09 00:31:25;;;;;;;1.50;0.90;;;;;;;15.14;100.00;100472.81;5077370;28;20209;-74
2022/10/09 00:33:51;;;;;;;1.52;0.80;;;;;;;14.60;100.00;100390.84;5096327;28;20205;-74
2022/10/09 00:36:22;;;;;;;4.18;1.33;;;;;;;15.04;100.00;100461.47;5077483;28;20677;-74
2022/10/09 00:38:49;;;;;;;1.83;0.90;;;;;;;14.85;100.00;100449.22;5094197;28;20198;-74
2022/10/09 00:41:18;;;;;;;2.17;0.98;;;;;;;14.72;100.00;100434.38;5104775;28;20197;-74
2022/10/09 00:43:48;;;;;;;2.10;1.00;;;;;;;14.80;100.00;100457.03;5108938;28;20209;-74
2022/10/09 00:46:28;;;;;;;0.98;0.75;;;;;;;14.81;100.00;100463.13;5093932;28;20194;-74
2022/10/09 00:49:04;;;;;;;1.17;0.98;;;;;;;14.62;100.00;100448.28;5092805;28;20723;-74
2022/10/09 00:51:34;;;;;;;1.20;0.80;;;;;;;14.52;100.00;100464.75;5109139;28;20707;-74
2022/10/09 00:54:03;;;;;;;1.27;0.85;;;;;;;14.42;100.00;100458.59;5096252;28;20202;-74
2022/10/09 00:56:29;;;;;;;1.80;0.90;;;;;;;14.17;100.00;100439.28;5092648;28;20202;-74
2022/10/09 00:58:58;;;;;;;2.90;0.95;;;;;;;13.97;100.00;100391.38;5092529;28;20213;-74
2022/10/09 01:01:24;;;;;;;1.27;0.85;;;;;;;14.23;100.00;100457.56;5106871;28;20194;-74
2022/10/09 01:03:51;;;;;;;2.67;1.00;;;;;;;14.20;100.00;100452.34;5106836;28;20696;-74
2022/10/09 01:06:21;;;;;;;1.85;0.93;;;;;;;14.20;100.00;100436.69;5093580;28;20213;-74
2022/10/09 01:08:57;;;;;;;1.27;0.80;;;;;;;14.35;100.00;100452.47;5092385;28;20218;-74
2022/10/09 01:11:34;;;;;;;1.33;0.80;;;;;;;14.32;100.00;100456.78;5054990;28;20539;-74
2022/10/09 01:14:08;;;;;;;1.20;0.82;;;;;;;14.28;100.00;100455.88;5109639;28;20280;-74
2022/10/09 01:16:41;;;;;;;3.55;1.17;;;;;;;14.07;100.00;100429.66;5112533;28;20209;-74
2022/10/09 01:19:22;;;;;;;4.18;1.20;;;;;;;14.06;100.00;100422.69;5112158;28;20692;-74
2022/10/09 01:21:58;;;;;;;1.63;0.90;;;;;;;14.24;100.00;100451.50;5105146;28;20197;-74
2022/10/09 01:24:32;;;;;;;2.95;0.90;;;;;;;14.23;100.00;100457.56;5099293;28;20198;-74
2022/10/09 01:27:10;;;;;;;1.33;0.90;;;;;;;14.29;100.00;100456.75;5093800;28;20200;-74
2022/10/09 01:29:42;;;;;;;1.92;1.00;;;;;;;14.16;100.00;100440.16;5111262;28;20221;-74
2022/10/09 01:32:12;;;;;;;1.20;0.80;;;;;;;14.14;100.00;100431.44;5112002;28;20697;-74
2022/10/09 01:34:41;;;;;;;2.92;1.00;;;;;;;14.25;100.00;100445.44;5112018;28;20197;-74
2022/10/09 01:37:10;;;;;;;1.13;0.90;;;;;;;14.24;100.00;100448.00;5112125;28;20197;-74
2022/10/09 01:39:38;;;;;;;0.98;0.80;;;;;;;14.18;100.00;100448.88;5111979;28;20217;-74
2022/10/09 01:42:07;;;;;;;1.85;0.90;;;;;;;14.27;100.00;100445.41;5112029;27;20224;-74
2022/10/09 01:44:35;;;;;;;1.75;0.80;;;;;;;14.18;100.00;100442.78;5095036;28;20190;-74
2022/10/09 01:47:03;;;;;;;2.28;0.90;;;;;;;14.23;100.00;100441.94;5102321;28;20251;-72
2022/10/09 01:49:52;;;;;;;1.48;0.90;;;;;;;14.43;100.00;100441.22;5103870;28;20258;-75
2022/10/09 01:52:28;;;;;;;3.20;1.10;;;;;;;14.37;100.00;100442.94;5091615;28;20206;-74
2022/10/09 01:55:06;;;;;;;1.63;0.90;;;;;;;14.63;100.00;100452.59;5092268;28;20678;-74
2022/10/09 01:57:40;;;;;;;5.35;1.42;;;;;;;14.86;100.00;100456.19;5091357;28;20202;-74
2022/10/09 02:00:10;;;;;;;3.05;1.00;;;;;;;15.10;100.00;100477.16;5098584;28;20197;-74
2022/10/09 02:02:38;;;;;;;3.03;1.10;;;;;;;15.15;100.00;100451.94;5109146;28;20193;-74
2022/10/09 02:05:07;;;;;;;3.92;1.20;;;;;;;15.47;100.00;100479.84;5091600;28;20213;-74
2022/10/09 02:07:34;;;;;;;2.45;1.00;;;;;;;15.56;100.00;100480.75;5094595;28;20198;-74
2022/10/09 02:10:03;;;;;;;1.67;0.90;;;;;;;15.67;100.00;100483.38;5101399;28;20209;-74
2022/10/09 02:12:33;;;;;;;0.90;0.80;;;;;;;15.66;100.00;100484.28;5091242;28;20202;-74
2022/10/09 02:15:02;;;;;;;1.65;0.90;;;;;;;15.69;100.00;100485.16;5091373;28;20194;-74
2022/10/09 02:17:34;;;;;;;3.15;1.10;;;;;;;15.60;100.00;100468.56;5090977;28;20202;-74
2022/10/09 02:20:06;;;;;;;2.00;0.93;;;;;;;15.58;100.00;100480.78;5091328;28;20206;-74
2022/10/09 02:22:34;;;;;;;1.67;0.85;;;;;;;15.42;100.00;100485.06;5107402;28;20595;-74
2022/10/09 02:25:05;;;;;;;2.22;0.90;;;;;;;15.44;100.00;100485.09;5105144;27;20231;-74
2022/10/09 02:27:32;;;;;;;1.00;0.75;;;;;;;15.25;100.00;100489.41;5100632;28;20578;-74
2022/10/09 02:30:00;;;;;;;1.40;0.90;;;;;;;15.16;100.00;100487.63;5108971;28;20229;-75
2022/10/09 02:32:29;;;;;;;1.35;0.95;;;;;;;15.13;100.00;100487.63;5071665;28;20208;-74
2022/10/09 02:34:56;;;;;;;0.70;0.70;;;;;;;14.92;100.00;100482.31;5110809;28;20206;-75
2022/10/09 02:37:23;;;;;;;0.80;0.80;;;;;;;14.88;100.00;100493.63;5110998;28;20193;-74
2022/10/09 02:39:50;;;;;;;1.85;0.93;;;;;;;14.79;100.00;100485.75;5110548;28;20202;-74
2022/10/09 02:42:16;;;;;;;2.13;0.90;;;;;;;14.64;100.00;100465.66;5107666;28;20196;-74
2022/10/09 02:44:43;;;;;;;1.42;0.90;;;;;;;14.61;100.00;100464.78;5095809;28;20270;-75
2022/10/09 02:47:10;;;;;;;3.60;1.10;;;;;;;14.67;100.00;100481.34;5094638;28;20205;-74
2022/10/09 02:49:38;;;;;;;2.67;1.10;;;;;;;14.63;100.00;100458.69;5106809;28;20270;-74
2022/10/09 02:52:05;;;;;;;2.35;1.00;;;;;;;14.64;100.00;100481.34;5051355;28;20225;-74
2022/10/09 02:54:32;;;;;;;1.70;0.90;;;;;;;14.58;100.00;100475.22;5070172;28;20191;-75
2022/10/09 02:56:59;;;;;;;3.13;1.02;;;;;;;14.65;100.00;100487.44;5089288;28;20729;-74
2022/10/09 02:59:25;;;;;;;1.33;0.90;;;;;;;14.61;100.00;100485.66;5090917;28;20198;-74
2022/10/09 03:01:52;;;;;;;2.95;1.05;;;;;;;14.54;100.00;100482.16;5093407;28;20202;-75
2022/10/09 03:04:19;;;;;;;4.25;1.20;;;;;;;14.50;100.00;100479.50;5110904;28;20224;-73
2022/10/09 03:06:47;;;;;;;1.80;0.90;;;;;;;14.47;100.00;100458.63;5109708;28;20346;-74
2022/10/09 03:09:14;;;;;;;4.07;1.15;;;;;;;14.44;100.00;100476.88;5115308;28;20346;-74
2022/10/09 03:11:41;;;;;;;3.40;1.20;;;;;;;14.42;100.00;100474.25;5114738;28;20209;-73
2022/10/09 03:14:09;;;;;;;2.05;1.00;;;;;;;14.54;100.00;100478.66;5111233;28;20205;-74
2022/10/09 03:16:35;;;;;;;1.73;0.93;;;;;;;14.46;100.00;100483.84;5114863;28;20259;-75
2022/10/09 03:19:02;;;;;;;3.55;1.20;;;;;;;14.41;100.00;100469.03;5115090;28;20212;-73
2022/10/09 03:21:29;;;;;;;1.33;0.85;;;;;;;14.32;100.00;100454.16;5106527;28;20589;-73
2022/10/09 03:23:57;;;;;;;1.75;1.00;;;;;;;14.56;100.00;100482.16;5058979;28;20203;-73
2022/10/09 03:26:26;;;;;;;1.95;1.00;;;;;;;14.49;100.00;100476.03;5101531;28;20190;-74
2022/10/09 03:28:54;;;;;;;1.85;1.00;;;;;;;14.30;100.00;100459.34;5114363;28;20231;-73
2022/10/09 03:31:23;;;;;;;0.82;0.80;;;;;;;14.42;100.00;100479.47;5112103;28;20201;-73
2022/10/09 03:33:50;;;;;;;2.58;1.02;;;;;;;14.19;100.00;100449.75;5094473;28;20281;-73
2022/10/09 03:36:16;;;;;;;2.60;1.02;;;;;;;14.36;100.00;100480.31;5094403;28;20239;-73
2022/10/09 03:38:43;;;;;;;1.98;0.90;;;;;;;14.35;100.00;100494.22;5097627;28;20209;-73
2022/10/09 03:41:11;;;;;;;1.45;0.90;;;;;;;14.47;100.00;100487.31;5095253;28;20210;-73
2022/10/09 03:43:38;;;;;;;2.10;0.88;;;;;;;14.34;100.00;100489.84;5105193;28;20201;-74
2022/10/09 03:46:07;;;;;;;1.33;0.90;;;;;;;14.30;100.00;100463.72;5095318;28;20202;-74
2022/10/09 03:48:34;;;;;;;1.48;1.00;;;;;;;14.26;100.00;100473.28;5094101;28;20225;-73
2022/10/09 03:51:01;;;;;;;1.38;1.00;;;;;;;14.15;100.00;100458.41;5095029;28;20225;-73
2022/10/09 03:53:28;;;;;;;0.80;0.80;;;;;;;14.25;100.00;100481.94;5113415;28;20202;-73
2022/10/09 03:55:55;;;;;;;1.13;0.82;;;;;;;14.22;100.00;100487.16;5113865;28;20708;-75
2022/10/09 03:58:23;;;;;;;1.38;0.80;;;;;;;14.25;100.00;100479.34;5104509;28;20194;-74
2022/10/09 04:00:50;;;;;;;1.90;0.93;;;;;;;14.14;100.00;100478.41;5107235;28;20696;-74
2022/10/09 04:03:17;;;;;;;1.17;0.90;;;;;;;14.05;100.00;100482.69;5114321;28;20205;-74
2022/10/09 04:05:44;;;;;;;1.33;0.88;;;;;;;13.86;100.00;100459.06;5110408;28;20583;-73
2022/10/09 04:08:11;;;;;;;2.25;0.93;;;;;;;13.97;100.00;100482.63;5093533;28;20736;-75
2022/10/09 04:10:37;;;;;;;1.05;0.90;;;;;;;13.95;100.00;100481.72;5093482;28;20206;-75
2022/10/09 04:13:04;;;;;;;2.42;1.00;;;;;;;13.90;100.00;100481.69;5094663;28;20198;-73
2022/10/09 04:15:34;;;;;;;1.23;0.90;;;;;;;13.94;100.00;100473.91;5102386;28;20197;-73
2022/10/09 04:18:00;;;;;;;1.75;0.98;;;;;;;13.90;100.00;100484.31;5108698;28;20661;-73
2022/10/09 04:20:27;;;;;;;1.15;0.90;;;;;;;13.91;100.00;100482.59;5093382;28;20213;-74
2022/10/09 04:22:54;;;;;;;1.25;0.90;;;;;;;13.97;100.00;100479.13;5100743;28;20206;-74
2022/10/09 04:25:21;;;;;;;1.05;0.77;;;;;;;13.99;100.00;100482.59;5095348;28;20190;-74
2022/10/09 04:27:47;;;;;;;1.65;0.82;;;;;;;14.04;100.00;100476.59;5113445;28;20254;-74
2022/10/09 04:30:14;;;;;;;2.00;0.98;;;;;;;14.08;100.00;100483.56;5113718;28;20228;-74
2022/10/09 04:32:42;;;;;;;1.38;0.90;;;;;;;14.24;100.00;100480.19;5076665;28;20201;-73
2022/10/09 04:35:09;;;;;;;1.15;0.82;;;;;;;14.22;100.00;100492.38;5074264;28;20202;-72
2022/10/09 04:37:36;;;;;;;1.63;0.90;;;;;;;14.24;100.00;100469.75;5113064;28;20201;-74
2022/10/09 04:40:03;;;;;;;1.05;0.90;;;;;;;14.44;100.00;100489.91;5105378;28;20212;-74
2022/10/09 04:42:30;;;;;;;1.58;0.93;;;;;;;14.53;100.00;100492.56;5102878;28;20258;-74
2022/10/09 04:44:57;;;;;;;0.95;0.80;;;;;;;14.55;100.00;100486.53;5112865;28;20197;-74
2022/10/09 04:47:24;;;;;;;1.10;0.85;;;;;;;14.54;100.00;100476.94;5097759;28;20704;-75
2022/10/09 04:49:52;;;;;;;0.85;0.85;;;;;;;14.82;100.00;100493.59;5100152;28;20213;-74
2022/10/09 04:52:19;;;;;;;1.58;0.90;;;;;;;14.63;100.00;100473.47;5058359;28;20197;-76
2022/10/09 04:54:46;;;;;;;4.53;1.20;;;;;;;14.82;100.00;100491.88;5092448;28;20205;-73
2022/10/09 04:57:12;;;;;;;3.40;1.13;;;;;;;14.95;100.00;100495.38;5095003;28;20202;-75
2022/10/09 04:59:39;;;;;;;3.63;1.20;;;;;;;15.00;100.00;100501.50;5056831;28;20658;-74
2022/10/09 05:02:06;;;;;;;1.60;0.90;;;;;;;15.10;100.00;100500.66;5070271;28;20663;-73
2022/10/09 05:04:33;;;;;;;2.08;0.95;;;;;;;15.22;100.00;100511.16;5071452;28;20194;-73
2022/10/09 05:07:01;;;;;;;2.65;0.95;;;;;;;15.49;100.00;100504.28;5093707;28;20604;-74
2022/10/09 05:09:28;;;;;;;2.17;0.90;;;;;;;15.41;100.00;100511.22;5092861;28;20226;-75
2022/10/09 05:11:54;;;;;;;2.67;1.08;;;;;;;15.39;100.00;100501.63;5093365;28;20662;-74
2022/10/09 05:14:21;;;;;;;0.80;0.80;;;;;;;15.38;100.00;100525.13;5092056;28;20221;-75
2022/10/09 05:16:51;;;;;;;2.25;0.95;;;;;;;15.42;100.00;100533.84;5092278;28;20598;-73
2022/10/09 05:19:18;;;;;;;1.75;0.90;;;;;;;15.13;100.00;100552.03;5096812;28;20302;-74
2022/10/09 05:21:45;;;;;;;2.10;1.00;;;;;;;15.24;100.00;100532.94;5095064;28;20231;-74
2022/10/09 05:24:13;;;;;;;1.95;0.85;;;;;;;15.48;100.00;100526.88;5084159;28;20210;-74
2022/10/09 05:26:40;;;;;;;0.77;0.77;;;;;;;15.05;100.00;100552.03;5082032;28;20195;-74
2022/10/09 05:29:07;;;;;;;2.05;0.90;;;;;;;14.73;100.00;100527.50;5080407;28;20619;-75
2022/10/09 05:31:34;;;;;;;5.38;1.38;;;;;;;14.81;100.00;100557.97;5091099;28;20206;-74
2022/10/09 05:34:01;;;;;;;0.98;0.88;;;;;;;14.64;100.00;100563.97;5088876;28;20245;-74
2022/10/09 05:36:28;;;;;;;1.30;0.90;;;;;;;14.72;100.00;100544.03;5094093;28;20226;-74
2022/10/09 05:38:55;;;;;;;2.67;0.90;;;;;;;14.85;100.00;100566.72;5075180;28;20258;-74
2022/10/09 05:41:23;;;;;;;2.55;0.93;;;;;;;14.93;100.00;100570.25;5068686;28;20213;-75
2022/10/09 05:43:50;;;;;;;1.17;0.80;;;;;;;14.94;100.00;100553.72;5099224;28;20267;-74
2022/10/09 05:46:19;;;;;;;2.85;1.05;;;;;;;15.17;100.00;100577.31;5083423;28;20564;-74
2022/10/09 05:48:51;;;;;;;1.27;0.90;;;;;;;15.25;100.00;100576.47;5087386;28;20202;-74
2022/10/09 05:51:19;;;;;;;2.05;0.93;;;;;;;15.46;100.00;100585.25;5085445;28;20223;-73
2022/10/09 05:53:48;;;;;;;1.25;0.90;;;;;;;15.46;100.00;100585.25;5081695;28;20214;-68
2022/10/09 05:56:17;;;;;;;2.72;1.02;;;;;;;15.59;100.00;100589.72;5077802;28;20195;-71
2022/10/09 05:58:50;;;;;;;1.10;0.80;;;;;;;15.66;100.00;100581.84;5084168;28;20205;-76
2022/10/09 06:01:17;;;;;;;2.50;1.00;;;;;;;15.16;100.00;100518.97;5085699;28;20221;-76
2022/10/09 06:03:48;;;;;;;0.80;0.80;;;;;;;15.79;100.00;100595.84;5075325;28;20195;-78
2022/10/09 06:06:15;;;;;;;2.13;1.00;;;;;;;15.72;100.00;100610.66;5081204;28;20255;-76
2022/10/09 06:08:42;;;;;;;1.40;1.00;;;;;;;15.86;100.00;100593.25;5079564;28;20199;-76
2022/10/09 06:11:12;;;;;;;2.83;0.93;;;;;;;16.27;100.00;100619.44;5085496;28;20234;-74
2022/10/09 06:13:39;;;;;;;1.20;0.80;;;;;;;16.28;100.00;100621.19;5086262;28;20664;-74
2022/10/09 06:16:10;;;;;;;0.80;0.80;;;;;;;16.38;100.00;100619.44;5077523;28;20224;-75
2022/10/09 06:18:37;;;;;;;0.70;0.70;;;;;;;16.41;100.00;100623.81;5080276;28;20199;-74
2022/10/09 06:21:04;;;;;;;0.85;0.80;;;;;;;16.40;100.00;100616.84;5080571;28;20210;-77
2022/10/09 06:23:31;;;;;;;1.27;0.90;;;;;;;16.45;100.00;100618.56;5079835;28;20231;-74
2022/10/09 06:26:00;;;;;;;0.82;0.82;;;;;;;16.73;100.00;100622.09;5087587;28;20681;-75
2022/10/09 06:28:28;;;;;;;2.08;1.90;;;;;;;16.73;100.00;100601.13;5081833;28;20195;-75
2022/10/09 06:31:00;;;;;;;0.80;0.80;;;;;;;17.02;100.00;100630.75;5079094;28;20229;-74
2022/10/09 06:33:31;;;;;;;1.30;1.15;;;;;;;17.08;100.00;100625.50;5075724;28;20202;-74
2022/10/09 06:36:01;;;;;;;0.90;0.90;;;;;;;17.32;100.00;100625.41;5091134;28;20277;-74
2022/10/09 06:38:28;;;;;;;3.45;1.23;;;;;;;17.27;100.00;100624.56;5094491;28;20658;-76
2022/10/09 06:40:55;;;;;;;1.38;0.90;;;;;;;17.35;100.00;100619.28;5085894;28;20202;-75
2022/10/09 06:43:22;;;;;;;2.83;1.05;;;;;;;17.40;100.00;100630.66;5070759;28;20206;-74
2022/10/09 06:45:49;;;;;;;2.78;2.55;;;;;;;17.42;100.00;100614.88;5078345;28;20198;-73
2022/10/09 06:48:15;;;;;;;1.00;0.90;;;;;;;17.34;99.38;100634.13;5071955;28;20198;-74
2022/10/09 06:50:44;;;;;;;0.80;0.80;;;;;;;17.62;98.80;100636.69;5084595;28;20237;-75
2022/10/09 06:53:10;;;;;;;4.65;1.20;;;;;;;17.50;97.82;100639.34;5084534;28;20669;-75
2022/10/09 06:55:37;;;;;;;3.60;1.05;;;;;;;17.48;97.64;100643.72;5072855;28;20592;-72
2022/10/09 06:58:04;;;;;;;1.55;0.85;;;;;;;17.77;100.00;100649.72;5056527;28;20209;-74
2022/10/09 07:00:31;;;;;;;1.20;0.77;;;;;;;18.01;98.27;100633.84;5083650;28;20214;-73
2022/10/09 07:02:58;;;;;;;2.00;1.00;;;;;;;18.14;94.73;100646.00;5051763;28;20199;-75
2022/10/09 07:05:25;;;;;;;2.63;1.00;;;;;;;18.23;94.82;100645.94;5046379;28;20203;-74
2022/10/09 07:07:53;;;;;;;3.10;1.02;;;;;;;18.25;96.12;100652.06;5091159;28;20209;-75
2022/10/09 07:10:19;;;;;;;0.77;0.77;;;;;;;18.38;94.93;100650.19;5091227;28;20229;-75
2022/10/09 07:12:46;;;;;;;2.67;1.00;;;;;;;18.51;94.68;100651.03;5085299;28;20219;-74
2022/10/09 07:15:13;;;;;;;2.83;1.10;;;;;;;18.65;95.08;100649.16;5076287;28;20217;-74
2022/10/09 07:17:40;;;;;;;2.53;0.98;;;;;;;18.77;92.72;100656.91;5091838;28;20198;-74
2022/10/09 07:20:07;;;;;;;1.77;0.90;;;;;;;18.97;92.86;100648.84;5089679;28;20214;-74
2022/10/09 07:22:33;;;;;;;1.35;0.88;;;;;;;18.87;93.74;100653.28;5089919;28;20700;-73
2022/10/09 07:25:02;;;;;;;2.75;1.10;;;;;;;19.02;96.30;100655.78;5090419;28;20288;-74
2022/10/09 07:27:29;;;;;;;1.33;0.80;;;;;;;18.94;95.69;100656.75;5083518;28;20204;-74
2022/10/09 07:29:56;;;;;;;1.92;0.93;;;;;;;18.99;94.58;100629.53;5082418;28;20233;-74
2022/10/09 07:32:23;;;;;;;0.90;0.73;;;;;;;19.11;94.38;100655.69;5078403;28;20203;-74
2022/10/09 07:34:49;;;;;;;1.20;0.80;;;;;;;19.10;95.05;100622.41;5084166;28;20209;-74
2022/10/09 07:37:16;;;;;;;0.60;0.60;;;;;;;19.54;91.07;100655.25;5084028;28;20198;-74
2022/10/09 07:39:43;;;;;;;0.75;0.75;;;;;;;19.58;90.29;100651.69;5090227;28;20194;-74
2022/10/09 07:42:11;;;;;;;3.03;1.50;;;;;;;19.87;89.88;100657.41;5053953;28;20739;-73
2022/10/09 07:44:38;;;;;;;1.77;0.85;;;;;;;19.82;87.44;100661.88;5090069;28;20210;-74
2022/10/09 07:47:05;;;;;;;0.80;0.70;;;;;;;19.96;87.50;100661.69;5086304;28;20210;-73
2022/10/09 07:49:32;;;;;;;1.70;0.95;;;;;;;20.08;85.22;100659.75;5089896;28;20234;-73
2022/10/09 07:51:59;;;;;;;1.13;0.70;;;;;;;20.17;84.00;100672.78;5053717;28;20233;-73
2022/10/09 07:54:26;;;;;;;3.80;1.90;;;;;;;20.19;83.21;100667.53;5093027;28;20202;-75
2022/10/09 07:56:52;;;;;;;2.00;0.90;;;;;;;20.37;81.19;100661.97;5093593;28;20198;-73
2022/10/09 07:59:21;;;;;;;1.70;0.90;;;;;;;20.26;79.58;100675.28;5093540;28;20210;-74
2022/10/09 08:01:47;;;;;;;4.53;1.30;;;;;;;20.26;80.57;100669.16;5092918;28;20701;-73
2022/10/09 08:04:14;;;;;;;2.97;1.10;;;;;;;20.40;80.30;100671.63;5094516;28;20587;-73
2022/10/09 08:06:41;;;;;;;5.28;1.25;;;;;;;20.59;78.98;100663.38;5056802;28;20203;-75
2022/10/09 08:09:08;;;;;;;2.55;1.00;;;;;;;20.58;77.52;100652.88;5093306;28;20704;-76
2022/10/09 08:11:39;;;;;;;1.20;0.82;;;;;;;20.62;78.24;100667.72;5093020;28;20597;-76
2022/10/09 08:14:06;;;;;;;3.80;1.30;;;;;;;20.72;76.71;100666.69;5061746;28;20205;-73
2022/10/09 08:16:34;;;;;;;1.05;0.80;;;;;;;20.93;77.07;100674.22;5078912;28;20669;-73
2022/10/09 08:19:12;;;;;;;1.45;0.80;;;;;;;20.82;76.73;100643.66;5093539;28;20202;-74
2022/10/09 08:21:39;;;;;;;8.13;1.52;;;;;;;20.88;76.36;100649.69;5093223;28;20198;-74
2022/10/09 08:24:06;;;;;;;3.20;1.80;;;;;;;21.11;76.75;100667.78;5110070;28;20189;-74
2022/10/09 08:26:33;;;;;;;1.10;0.80;;;;;;;21.08;76.28;100679.19;5071551;28;20198;-73
2022/10/09 08:29:01;;;;;;;2.42;1.00;;;;;;;20.98;74.64;100651.25;5093150;28;20210;-74
2022/10/09 08:31:30;;;;;;;1.27;0.85;;;;;;;21.06;73.96;100649.38;5092822;28;20240;-75
2022/10/09 08:34:00;;;;;;;6.43;1.40;;;;;;;21.27;71.76;100680.63;5098591;28;20206;-74
2022/10/09 08:36:28;;;;;;;1.30;0.90;;;;;;;21.07;72.30;100643.19;5109150;28;20271;-74
2022/10/09 08:38:55;;;;;;;1.42;0.75;;;;;;;21.09;74.59;100677.44;5053910;28;20206;-76
2022/10/09 08:41:33;;;;;;;5.80;1.25;;;;;;;21.39;75.43;100658.44;5091387;28;20198;-73
2022/10/09 08:44:03;;;;;;;1.52;0.80;;;;;;;21.61;75.67;100664.16;5092646;28;20205;-73
2022/10/09 08:46:35;;;;;;;2.00;0.98;;;;;;;21.33;76.56;100626.03;5092296;28;20193;-76
2022/10/09 08:49:05;;;;;;;3.05;1.05;;;;;;;21.56;76.70;100660.72;5093776;28;20222;-73
2022/10/09 08:51:38;;;;;;;1.30;0.85;;;;;;;21.54;78.05;100667.81;5092412;28;20268;-74
2022/10/09 08:54:15;;;;;;;0.95;0.80;;;;;;;21.50;77.35;100658.22;5083789;28;20263;-73
2022/10/09 08:56:42;;;;;;;2.30;0.90;;;;;;;21.42;75.88;100636.38;5093811;28;20206;-74
2022/10/09 08:59:11;;;;;;;1.50;1.35;;;;;;;21.62;72.96;100656.19;5092613;28;20201;-73
2022/10/09 09:01:43;;;;;;;2.38;1.17;;;;;;;21.65;70.77;100650.84;5104703;28;20202;-74
2022/10/09 09:04:32;;;;;;;0.85;0.80;;;;;;;21.98;70.99;100659.84;5092044;28;20601;-72
2022/10/09 09:07:07;;;;;;;3.47;1.08;;;;;;;22.14;69.42;100655.97;5093948;28;20206;-73
2022/10/09 09:09:46;;;;;;;2.45;0.90;;;;;;;22.25;67.72;100666.28;5111584;28;20197;-76
2022/10/09 09:12:19;;;;;;;1.60;0.82;;;;;;;22.36;66.58;100663.38;5105959;28;20205;-73
2022/10/09 09:15:01;;;;;;;1.55;0.80;;;;;;;22.42;63.88;100660.56;5106553;28;20198;-74
2022/10/09 09:17:38;;;;;;;2.90;1.00;;;;;;;22.20;64.00;100661.09;5096910;28;20201;-71
2022/10/09 09:20:15;;;;;;;0.70;0.70;;;;;;;22.19;62.96;100654.06;5101399;28;20197;-73
2022/10/09 09:22:47;;;;;;;4.85;1.23;;;;;;;22.30;60.83;100663.50;5088713;28;20284;-73
2022/10/09 09:25:23;;;;;;;1.45;0.82;;;;;;;22.40;60.99;100650.03;5077070;28;20194;-73
2022/10/09 09:27:51;;;;;;;1.25;0.80;;;;;;;22.44;61.35;100664.06;5085689;28;20214;-72
2022/10/09 09:30:21;;;;;;;2.20;1.00;;;;;;;22.79;61.50;100661.44;5076316;28;20223;-72
2022/10/09 09:32:56;;;;;;;1.70;1.30;;;;;;;22.75;62.56;100665.06;5084570;28;20609;-72
2022/10/09 09:35:32;;;;;;;1.15;0.90;;;;;;;22.86;61.28;100670.97;5096352;28;20198;-72
2022/10/09 09:37:59;;;;;;;1.65;0.90;;;;;;;22.51;60.66;100655.94;5083474;28;20206;-72
2022/10/09 09:40:32;;;;;;;2.25;1.42;;;;;;;22.59;60.12;100653.09;5082407;28;20217;-73
2022/10/09 09:43:00;;;;;;;1.40;0.88;;;;;;;22.85;60.43;100668.34;5079796;28;20198;-72
2022/10/09 09:45:28;;;;;;;1.15;0.82;;;;;;;23.02;63.37;100666.13;5082256;28;20683;-73
2022/10/09 09:48:03;;;;;;;2.20;1.98;;;;;;;22.92;66.45;100662.84;5083622;28;20213;-74
2022/10/09 09:50:35;;;;;;;1.40;0.80;;;;;;;23.08;67.00;100656.22;5106214;28;20220;-73
2022/10/09 09:53:04;;;;;;;0.70;0.70;;;;;;;23.02;62.51;100648.47;5097092;28;20237;-72
2022/10/09 09:55:33;;;;;;;0.75;0.75;;;;;;;23.21;58.61;100654.13;5092045;28;20227;-74
2022/10/09 09:58:03;;;;;;;0.70;0.70;;;;;;;23.26;58.10;100648.72;5098449;28;20206;-74
2022/10/09 10:00:30;;;;;;;1.42;1.02;;;;;;;23.10;58.36;100656.22;5103412;28;20205;-74
2022/10/09 10:03:10;;;;;;;1.48;0.80;;;;;;;23.22;61.53;100646.13;5091088;28;20205;-75
2022/10/09 10:05:40;;;;;;;0.70;0.70;;;;;;;23.11;61.27;100642.94;5087304;28;20267;-74
2022/10/09 10:08:21;;;;;;;1.10;0.88;;;;;;;23.33;60.57;100642.34;5083575;28;20213;-73
2022/10/09 10:10:49;;;;;;;5.25;1.30;;;;;;;23.23;59.01;100636.44;5088643;28;20230;-72
2022/10/09 10:13:19;;;;;;;1.90;0.90;;;;;;;23.39;56.79;100644.81;5093996;28;20703;-74
2022/10/09 10:15:52;;;;;;;2.65;0.85;;;;;;;23.46;56.88;100638.47;5072277;28;20218;-73
2022/10/09 10:18:20;;;;;;;3.92;1.20;;;;;;;23.57;56.86;100636.38;5070892;28;20205;-73
2022/10/09 10:20:50;;;;;;;1.02;0.80;;;;;;;23.87;57.75;100634.56;5082759;28;20651;-74
2022/10/09 10:23:31;;;;;;;0.98;0.75;;;;;;;23.40;55.08;100562.69;5100427;28;20197;-75
2022/10/09 10:26:00;;;;;;;1.48;0.93;;;;;;;23.69;53.88;100628.94;5084693;28;20650;-72
2022/10/09 10:28:35;;;;;;;1.85;0.93;;;;;;;24.06;53.68;100638.41;5080378;28;20211;-73
2022/10/09 10:31:08;;;;;;;5.90;1.45;;;;;;;24.10;55.27;100622.38;5076255;28;20253;-75
2022/10/09 10:33:37;;;;;;;4.60;1.20;;;;;;;23.87;56.34;100613.38;5080224;28;20257;-75
2022/10/09 10:36:09;;;;;;;1.25;0.82;;;;;;;23.69;55.08;100620.09;5083186;28;20217;-74
2022/10/09 10:38:43;;;;;;;1.05;0.85;;;;;;;23.59;54.36;100594.81;5054369;28;20201;-76
2022/10/09 10:41:14;;;;;;;1.75;0.90;;;;;;;23.71;54.64;100613.00;5082161;28;20594;-77
2022/10/09 10:43:44;;;;;;;2.67;0.93;;;;;;;23.61;56.23;100601.84;5082180;28;20202;-75
2022/10/09 10:46:20;;;;;;;5.93;1.33;;;;;;;23.44;54.30;100560.84;5083763;28;20209;-75
2022/10/09 10:48:48;;;;;;;3.33;1.05;;;;;;;23.34;54.17;100517.91;5081678;28;20220;-75
2022/10/09 10:51:43;;;;;;;3.83;1.15;;;;;;;24.06;51.61;100620.72;5080829;28;20252;-76
2022/10/09 10:54:23;;;;;;;2.05;0.90;;;;;;;24.02;52.07;100616.44;5078855;28;20234;-76
2022/10/09 10:56:56;;;;;;;7.25;1.40;;;;;;;24.32;51.57;100600.50;5079919;28;20289;-77
2022/10/09 10:59:39;;;;;;;2.13;1.00;;;;;;;24.51;50.75;100604.25;5086288;28;20649;-74
2022/10/09 11:02:37;;;;;;;5.47;1.30;;;;;;;24.44;51.61;100610.69;5016240;28;20700;-76
2022/10/09 11:05:15;;;;;;;3.83;1.08;;;;;;;24.33;51.24;100584.53;4980413;28;20291;-76
2022/10/09 11:07:52;;;;;;;4.30;1.13;;;;;;;24.07;51.93;100595.97;5024056;28;20232;-75
2022/10/09 11:10:27;;;;;;;3.47;1.00;;;;;;;24.05;52.76;100592.47;5011095;28;20212;-76
2022/10/09 11:13:00;;;;;;;3.05;1.00;;;;;;;24.18;53.04;100603.59;5016805;28;20270;-76
2022/10/09 11:15:36;;;;;;;2.58;0.90;;;;;;;24.40;51.22;100599.31;5016253;28;20200;-74
2022/10/09 11:18:17;;;;;;;2.40;0.95;;;;;;;24.07;52.40;100606.56;5022880;28;20609;-74
2022/10/09 11:20:57;;;;;;;3.47;1.10;;;;;;;23.79;51.70;100525.38;5023740;28;20196;-74
2022/10/09 11:23:34;;;;;;;5.22;1.15;;;;;;;24.14;52.00;100596.66;5022387;28;20215;-74
2022/10/09 11:26:12;;;;;;;6.30;1.33;;;;;;;24.15;51.21;100593.94;5015180;28;20213;-74
2022/10/09 11:28:45;;;;;;;3.42;1.00;;;;;;;24.14;50.92;100594.88;5030572;28;20223;-75
2022/10/09 11:31:16;;;;;;;3.58;1.10;;;;;;;23.85;52.21;100588.75;5025541;28;20239;-77